Time;durP1;ratioP1;P1;durP2;ratioP2;P2;SDS_P1;SDS_P2;PMS_P1;PMS_P2;Temp;Humidity;BMP_temperature;BMP_pressure;BME280_temperature;BME280_humidity;BME280_pressure;Samples;Min_cycle;Max_cycle;Signal;HPM_P1;HPM_P2
2022/12/07 00:01:06;;;;;;;6.15;3.55;;;;;;;7.79;66.57;101763.41;5062459;28;20045;-69
2022/12/07 00:03:34;;;;;;;6.07;3.50;;;;;;;7.79;66.62;101774.94;5059848;28;20045;-66
2022/12/07 00:06:03;;;;;;;6.85;3.95;;;;;;;7.78;66.86;101773.28;5058094;28;20057;-68
2022/12/07 00:08:31;;;;;;;5.55;3.45;;;;;;;7.79;66.32;101772.28;5059103;28;20121;-68
2022/12/07 00:11:03;;;;;;;6.22;4.32;;;;;;;7.73;67.10;101767.66;5053402;28;20378;-69
2022/12/07 00:13:31;;;;;;;7.10;3.80;;;;;;;7.73;66.52;101762.28;5059665;28;20053;-65
2022/12/07 00:16:02;;;;;;;9.05;3.88;;;;;;;7.76;66.57;101759.25;5061290;28;20045;-69
2022/12/07 00:18:30;;;;;;;9.73;3.30;;;;;;;7.76;66.21;101761.09;5051766;28;20076;-68
2022/12/07 00:21:01;;;;;;;5.88;3.38;;;;;;;7.75;66.35;101757.59;5059120;28;20063;-69
2022/12/07 00:23:29;;;;;;;7.13;3.40;;;;;;;7.73;66.79;101756.94;5060092;28;20037;-69
2022/12/07 00:25:57;;;;;;;4.78;3.10;;;;;;;7.74;66.97;101760.44;5064747;28;20064;-69
2022/12/07 00:28:26;;;;;;;8.10;3.42;;;;;;;7.72;66.55;101752.59;5064547;28;20116;-69
2022/12/07 00:31:01;;;;;;;6.18;3.67;;;;;;;7.72;66.77;101749.94;5058926;28;20113;-69
2022/12/07 00:33:29;;;;;;;6.70;3.40;;;;;;;7.73;66.46;101748.09;5062768;28;20045;-68
2022/12/07 00:35:57;;;;;;;5.90;3.78;;;;;;;7.74;66.23;101745.22;5058036;28;20059;-69
2022/12/07 00:38:25;;;;;;;7.70;3.45;;;;;;;7.72;66.13;101741.91;5063936;28;20054;-69
2022/12/07 00:40:57;;;;;;;9.02;3.80;;;;;;;7.74;66.11;101739.88;5054008;28;20053;-68
2022/12/07 00:43:27;;;;;;;7.53;3.00;;;;;;;7.74;65.73;101741.72;5060701;28;20108;-68
2022/12/07 00:45:55;;;;;;;5.30;2.95;;;;;;;7.73;65.55;101740.88;5059440;28;20049;-68
2022/12/07 00:48:24;;;;;;;5.65;3.47;;;;;;;7.73;66.05;101740.06;5056544;28;20061;-68
2022/12/07 00:50:52;;;;;;;6.97;3.67;;;;;;;7.71;66.38;101740.22;5060242;28;20056;-68
2022/12/07 00:53:20;;;;;;;4.75;3.40;;;;;;;7.68;66.19;101737.91;5064476;28;20131;-69
2022/12/07 00:55:48;;;;;;;4.95;3.20;;;;;;;7.69;66.61;101736.06;5060461;28;20048;-68
2022/12/07 00:58:16;;;;;;;5.70;3.38;;;;;;;7.70;66.04;101735.06;5054156;28;20120;-68
2022/12/07 01:00:45;;;;;;;6.97;3.55;;;;;;;7.69;66.06;101728.88;5052271;28;20399;-67
2022/12/07 01:03:15;;;;;;;8.52;3.13;;;;;;;7.69;66.14;101736.06;5058939;28;20076;-65
2022/12/07 01:05:51;;;;;;;7.43;3.20;;;;;;;7.67;65.99;101732.75;5064871;28;20087;-67
2022/12/07 01:08:19;;;;;;;5.85;3.00;;;;;;;7.66;66.00;101739.94;5062491;28;20490;-67
2022/12/07 01:10:47;;;;;;;6.60;3.25;;;;;;;7.64;65.79;101733.13;5059268;28;20045;-68
2022/12/07 01:13:15;;;;;;;5.38;3.63;;;;;;;7.63;66.09;101734.13;5056094;28;20049;-67
2022/12/07 01:15:45;;;;;;;9.43;3.17;;;;;;;7.63;66.07;101740.31;5056692;28;20067;-67
2022/12/07 01:18:13;;;;;;;6.15;2.90;;;;;;;7.61;65.85;101739.66;5062628;28;20068;-68
2022/12/07 01:20:41;;;;;;;6.93;3.03;;;;;;;7.60;65.92;101739.84;5063298;28;20041;-68
2022/12/07 01:23:08;;;;;;;5.13;3.10;;;;;;;7.59;65.61;101740.84;5064887;28;20049;-68
2022/12/07 01:25:37;;;;;;;4.57;3.05;;;;;;;7.57;65.84;101735.69;5064700;28;20063;-67
2022/12/07 01:28:05;;;;;;;6.00;2.70;;;;;;;7.59;66.06;101740.84;5062666;28;20133;-68
2022/12/07 01:30:32;;;;;;;6.88;3.05;;;;;;;7.59;66.24;101743.53;5056918;28;20533;-68
2022/12/07 01:33:01;;;;;;;4.13;2.53;;;;;;;7.55;65.82;101737.69;5060355;28;20045;-68
2022/12/07 01:35:29;;;;;;;7.43;3.38;;;;;;;7.54;65.66;101735.22;5058216;28;20049;-67
2022/12/07 01:37:57;;;;;;;4.20;2.63;;;;;;;7.54;66.49;101737.88;5062597;28;20056;-68
2022/12/07 01:40:24;;;;;;;6.47;3.20;;;;;;;7.53;65.42;101738.91;5059757;28;20045;-68
2022/12/07 01:42:52;;;;;;;4.78;2.60;;;;;;;7.52;66.59;101738.06;5055636;28;20117;-68
2022/12/07 01:45:39;;;;;;;6.32;2.70;;;;;;;7.50;65.63;101740.09;5063132;28;20216;-68
2022/12/07 01:48:10;;;;;;;5.25;2.88;;;;;;;7.49;66.28;101747.28;5057243;28;20049;-69
2022/12/07 01:50:41;;;;;;;4.80;2.70;;;;;;;7.47;66.43;101743.94;5062031;28;20044;-67
2022/12/07 01:53:11;;;;;;;4.95;2.83;;;;;;;7.48;65.74;101739.44;5064203;28;20045;-68
2022/12/07 01:55:43;;;;;;;5.03;2.90;;;;;;;7.49;65.75;101743.78;5055437;28;20059;-67
2022/12/07 01:58:13;;;;;;;4.70;2.55;;;;;;;7.47;66.57;101730.56;5063440;28;20073;-67
2022/12/07 02:00:42;;;;;;;5.18;3.00;;;;;;;7.47;65.88;101737.78;5055657;28;20651;-67
2022/12/07 02:03:16;;;;;;;8.10;3.47;;;;;;;7.44;66.15;101746.16;5058609;28;20041;-68
2022/12/07 02:05:44;;;;;;;7.07;2.70;;;;;;;7.45;65.98;101745.13;5051300;28;20048;-68
2022/12/07 02:08:13;;;;;;;3.72;2.58;;;;;;;7.45;66.04;101743.31;5058569;28;20045;-68
2022/12/07 02:10:41;;;;;;;5.75;2.63;;;;;;;7.45;66.27;101739.78;5059686;28;20041;-67
2022/12/07 02:13:13;;;;;;;5.18;2.70;;;;;;;7.44;66.12;101730.09;5053747;28;20049;-67
2022/12/07 02:15:54;;;;;;;4.57;2.55;;;;;;;7.43;65.95;101731.13;5062208;28;20700;-67
2022/12/07 02:18:31;;;;;;;5.75;3.08;;;;;;;7.43;66.33;101729.28;5060067;28;20270;-69
2022/12/07 02:21:07;;;;;;;3.97;2.38;;;;;;;7.43;66.30;101723.09;5052221;28;20125;-68
2022/12/07 02:23:46;;;;;;;6.15;2.33;;;;;;;7.42;66.42;101727.59;5056655;28;20065;-68
2022/12/07 02:26:53;;;;;;;4.63;2.20;;;;;;;7.41;65.93;101727.78;5061805;28;20104;-69
2022/12/07 02:29:26;;;;;;;5.63;2.85;;;;;;;7.40;66.24;101732.31;5040209;28;20053;-68
2022/12/07 02:32:07;;;;;;;4.80;2.75;;;;;;;7.40;66.01;101731.47;5065248;28;20049;-68
2022/12/07 02:34:43;;;;;;;3.72;2.20;;;;;;;7.39;65.86;101733.31;5056872;28;20053;-67
2022/12/07 02:37:20;;;;;;;4.57;2.35;;;;;;;7.38;66.31;101731.66;5062541;28;20112;-68
2022/12/07 02:39:51;;;;;;;7.75;3.03;;;;;;;7.38;66.08;101730.81;5062678;28;20167;-68
2022/12/07 02:42:26;;;;;;;5.40;2.38;;;;;;;7.38;65.79;101733.50;5052320;28;20045;-68
2022/12/07 02:44:55;;;;;;;6.45;2.80;;;;;;;7.37;65.70;101724.63;5064154;28;20393;-69
2022/12/07 02:47:25;;;;;;;7.22;2.70;;;;;;;7.37;66.25;101721.13;5062064;28;20045;-68
2022/12/07 02:49:53;;;;;;;7.10;2.78;;;;;;;7.36;65.78;101728.31;5057118;28;20072;-66
2022/12/07 02:52:21;;;;;;;5.93;2.65;;;;;;;7.34;66.54;101725.00;5060441;28;20146;-69
2022/12/07 02:54:49;;;;;;;4.00;2.40;;;;;;;7.34;66.13;101722.31;5060870;28;20052;-69
2022/12/07 02:57:30;;;;;;;5.55;2.50;;;;;;;7.34;66.10;101719.66;5058867;28;20726;-69
2022/12/07 03:00:05;;;;;;;5.50;2.65;;;;;;;7.34;66.43;101718.81;5057167;28;20067;-69
2022/12/07 03:02:46;;;;;;;5.65;2.60;;;;;;;7.34;66.57;101726.84;5059928;28;20041;-69
2022/12/07 03:05:30;;;;;;;3.85;2.15;;;;;;;7.34;66.49;101730.34;5053390;28;20139;-69
2022/12/07 03:08:03;;;;;;;4.88;2.28;;;;;;;7.35;66.58;101728.50;5052970;28;20060;-69
2022/12/07 03:10:41;;;;;;;6.45;2.50;;;;;;;7.35;65.63;101728.50;5059028;28;20120;-69
2022/12/07 03:13:15;;;;;;;5.38;2.42;;;;;;;7.34;65.98;101730.34;5053131;28;20177;-69
2022/12/07 03:15:50;;;;;;;6.50;2.47;;;;;;;7.35;66.18;101731.19;5054857;28;20041;-69
2022/12/07 03:18:22;;;;;;;5.70;2.35;;;;;;;7.33;66.55;101731.34;5061398;28;20065;-69
2022/12/07 03:20:53;;;;;;;7.50;2.28;;;;;;;7.35;65.63;101723.16;5062272;28;20132;-69
2022/12/07 03:23:24;;;;;;;5.93;3.10;;;;;;;7.33;66.08;101726.00;5056195;28;20514;-69
2022/12/07 03:25:56;;;;;;;7.47;2.45;;;;;;;7.33;66.21;101736.72;5063590;28;20140;-69
2022/12/07 03:28:32;;;;;;;5.07;2.20;;;;;;;7.32;66.52;101729.69;5055351;28;20537;-69
2022/12/07 03:31:05;;;;;;;7.40;2.40;;;;;;;7.31;65.69;101724.53;5061416;28;20060;-69
2022/12/07 03:33:41;;;;;;;4.93;1.88;;;;;;;7.29;65.76;101719.34;5061269;28;20055;-69
2022/12/07 03:36:16;;;;;;;6.60;2.95;;;;;;;7.31;65.96;101724.53;5058468;28;20110;-68
2022/12/07 03:38:48;;;;;;;4.03;2.10;;;;;;;7.30;66.31;101721.03;5048766;28;20073;-69
2022/12/07 03:41:23;;;;;;;4.13;2.28;;;;;;;7.30;66.04;101714.84;5049479;28;20132;-68
2022/12/07 03:43:51;;;;;;;5.63;2.13;;;;;;;7.29;66.05;101711.34;5054395;28;20045;-68
2022/12/07 03:46:28;;;;;;;7.40;2.03;;;;;;;7.29;65.95;101707.84;5049237;28;20059;-68
2022/12/07 03:49:05;;;;;;;6.20;2.22;;;;;;;7.26;65.98;101706.34;5058169;28;20096;-69
2022/12/07 03:51:41;;;;;;;5.55;2.58;;;;;;;7.26;66.20;101716.22;5055413;28;20045;-69
2022/12/07 03:54:14;;;;;;;4.57;2.40;;;;;;;7.26;66.19;101721.56;5064770;28;20041;-68
2022/12/07 03:56:45;;;;;;;4.07;2.55;;;;;;;7.25;66.75;101726.06;5055169;28;20052;-68
2022/12/07 03:59:14;;;;;;;5.28;1.90;;;;;;;7.25;66.42;101723.41;5051886;28;20059;-68
2022/12/07 04:01:44;;;;;;;5.68;2.00;;;;;;;7.26;66.10;101729.56;5059251;28;20505;-68
2022/12/07 04:04:12;;;;;;;6.88;2.58;;;;;;;7.24;66.38;101726.25;5056133;28;20053;-68
2022/12/07 04:06:39;;;;;;;4.78;2.35;;;;;;;7.23;66.44;101727.25;5058945;28;20063;-68
2022/12/07 04:09:07;;;;;;;7.45;2.47;;;;;;;7.22;66.53;101721.09;5062156;28;20071;-68
2022/12/07 04:11:35;;;;;;;3.67;1.83;;;;;;;7.22;66.30;101723.75;5062728;28;20045;-65
2022/12/07 04:14:21;;;;;;;4.20;1.90;;;;;;;7.21;66.29;101724.75;5060956;28;20104;-67
2022/12/07 04:16:52;;;;;;;5.93;2.08;;;;;;;7.22;66.42;101723.75;5059194;28;20053;-68
2022/12/07 04:19:22;;;;;;;5.43;2.10;;;;;;;7.22;66.33;101725.59;5057367;28;20058;-68
2022/12/07 04:21:49;;;;;;;5.97;2.17;;;;;;;7.22;66.58;101720.25;5053101;28;20076;-68
2022/12/07 04:24:18;;;;;;;4.35;2.10;;;;;;;7.22;66.13;101718.41;5056035;28;20121;-68
2022/12/07 04:26:46;;;;;;;3.83;2.50;;;;;;;7.20;66.16;101720.44;5050419;28;20045;-68
2022/12/07 04:29:15;;;;;;;3.55;2.03;;;;;;;7.22;66.29;101722.94;5059370;28;20049;-68
2022/12/07 04:31:43;;;;;;;3.38;1.75;;;;;;;7.20;66.61;101717.75;5058530;28;20080;-68
2022/12/07 04:34:13;;;;;;;3.40;1.73;;;;;;;7.16;66.07;101714.59;5061773;28;20099;-68
2022/12/07 04:36:42;;;;;;;3.30;1.83;;;;;;;7.16;66.22;101717.28;5058507;28;20124;-68
2022/12/07 04:39:19;;;;;;;6.38;1.95;;;;;;;7.19;66.59;101710.75;5061399;28;20056;-68
2022/12/07 04:41:47;;;;;;;4.13;1.65;;;;;;;7.19;66.03;101708.06;5062557;28;20045;-68
2022/12/07 04:44:16;;;;;;;5.20;2.67;;;;;;;7.16;66.57;101697.72;5064215;28;20053;-68
2022/12/07 04:46:44;;;;;;;6.93;2.28;;;;;;;7.16;66.34;101705.75;5062255;28;20049;-68
2022/12/07 04:49:15;;;;;;;3.90;1.83;;;;;;;7.16;66.76;101701.25;5059109;28;20052;-68
2022/12/07 04:51:43;;;;;;;6.07;2.47;;;;;;;7.16;66.27;101703.09;5059164;28;20387;-68
2022/12/07 04:54:11;;;;;;;4.68;1.80;;;;;;;7.17;66.68;101694.88;5064997;28;20287;-68
2022/12/07 04:56:39;;;;;;;5.25;1.73;;;;;;;7.15;66.70;101707.59;5062248;28;20052;-67
2022/12/07 04:59:07;;;;;;;4.47;1.90;;;;;;;7.12;66.58;101699.94;5055095;28;20425;-67
2022/12/07 05:01:35;;;;;;;8.52;2.28;;;;;;;7.15;65.93;101699.56;5061020;28;20041;-68
2022/12/07 05:04:03;;;;;;;4.32;2.13;;;;;;;7.11;66.78;101703.63;5062034;28;20060;-67
2022/12/07 05:06:32;;;;;;;6.57;2.22;;;;;;;7.14;66.88;101700.59;5064560;28;20120;-66
2022/12/07 05:09:01;;;;;;;3.65;1.90;;;;;;;7.12;66.46;101701.78;5065238;28;20077;-68
2022/12/07 05:11:40;;;;;;;4.65;2.17;;;;;;;7.14;66.28;101705.94;5057271;28;20056;-68
2022/12/07 05:14:12;;;;;;;4.32;1.98;;;;;;;7.15;66.64;101712.13;5054333;28;20041;-68
2022/12/07 05:16:41;;;;;;;5.88;2.58;;;;;;;7.14;66.49;101705.09;5062812;28;20047;-68
2022/12/07 05:19:09;;;;;;;6.10;2.08;;;;;;;7.14;66.74;101697.09;5060624;28;20060;-67
2022/12/07 05:21:39;;;;;;;5.95;2.33;;;;;;;7.13;66.60;101696.25;5062794;28;20052;-68
2022/12/07 05:24:08;;;;;;;4.60;2.35;;;;;;;7.14;66.30;101699.75;5061755;28;20068;-68
2022/12/07 05:26:36;;;;;;;7.32;2.08;;;;;;;7.13;66.95;101700.75;5057003;28;20574;-68
2022/12/07 05:29:04;;;;;;;3.33;1.77;;;;;;;7.16;66.72;101692.38;5057899;28;20057;-65
2022/12/07 05:31:32;;;;;;;5.97;2.25;;;;;;;7.15;66.64;101696.06;5060246;28;20109;-68
2022/12/07 05:34:00;;;;;;;4.28;1.58;;;;;;;7.14;66.46;101697.91;5056378;28;20037;-68
2022/12/07 05:36:30;;;;;;;6.15;1.80;;;;;;;7.16;66.70;101695.06;5064049;28;20061;-68
2022/12/07 05:39:00;;;;;;;3.35;1.40;;;;;;;7.16;66.78;101692.38;5060494;28;20049;-68
2022/12/07 05:44:13;;;;;;;5.57;1.67;;;;;;;7.18;67.12;101693.88;5062931;28;20076;-68
2022/12/07 05:46:41;;;;;;;5.25;1.95;;;;;;;7.17;66.56;101694.06;5064556;28;20044;-68
2022/12/07 05:49:08;;;;;;;3.17;1.80;;;;;;;7.15;66.74;101686.22;5056418;28;20058;-65
2022/12/07 05:51:36;;;;;;;4.78;1.67;;;;;;;7.15;66.62;101688.88;5060062;28;20053;-68
2022/12/07 05:54:05;;;;;;;2.17;1.52;;;;;;;7.14;66.54;101684.53;5056479;28;20055;-68
2022/12/07 05:56:33;;;;;;;4.60;2.13;;;;;;;7.15;66.43;101682.72;5052912;28;20045;-68
2022/12/07 06:01:46;;;;;;;4.80;1.80;;;;;;;7.13;66.94;101677.53;5061875;28;20477;-68
2022/12/07 06:04:13;;;;;;;2.83;1.80;;;;;;;7.12;66.49;101681.22;5062148;28;20072;-68
2022/12/07 06:06:41;;;;;;;4.53;1.52;;;;;;;7.13;66.44;101684.72;5062607;28;20109;-68
2022/12/07 06:09:11;;;;;;;7.50;1.90;;;;;;;7.12;66.59;101683.91;5056383;28;20107;-68
2022/12/07 06:14:25;;;;;;;4.18;1.83;;;;;;;7.12;66.50;101685.75;5052782;28;20041;-68
2022/12/07 06:16:52;;;;;;;7.82;2.33;;;;;;;7.09;66.36;101686.91;5060802;28;20051;-68
2022/12/07 06:19:20;;;;;;;4.03;1.58;;;;;;;7.09;66.29;101697.63;5061474;28;20045;-68
2022/12/07 06:21:48;;;;;;;8.90;2.78;;;;;;;7.10;66.71;101688.59;5058541;28;20045;-68
2022/12/07 06:24:18;;;;;;;3.92;1.55;;;;;;;7.07;66.72;101694.28;5056245;28;20053;-68
2022/12/07 06:26:46;;;;;;;4.85;1.83;;;;;;;7.07;66.63;101698.81;5051315;28;20065;-68
2022/12/07 06:29:15;;;;;;;5.32;1.80;;;;;;;7.06;66.41;101699.81;5061271;28;20067;-68
2022/12/07 06:31:42;;;;;;;4.70;1.65;;;;;;;7.06;66.63;101697.13;5060931;28;20049;-68
2022/12/07 06:34:12;;;;;;;4.22;1.58;;;;;;;7.07;66.38;101693.47;5051465;28;20056;-68
2022/12/07 06:36:40;;;;;;;4.60;1.70;;;;;;;7.05;66.25;101693.63;5060907;28;20453;-69
2022/12/07 06:39:09;;;;;;;4.32;1.67;;;;;;;7.04;66.59;101691.97;5059655;28;20127;-70
2022/12/07 06:41:38;;;;;;;4.00;1.67;;;;;;;7.05;66.16;101700.81;5055653;28;20051;-68
2022/12/07 06:44:07;;;;;;;5.45;1.85;;;;;;;7.03;66.67;101695.66;5061444;28;20055;-67
2022/12/07 06:46:36;;;;;;;6.30;1.73;;;;;;;6.94;66.56;101685.19;5053206;28;20124;-71
2022/12/07 06:49:04;;;;;;;3.67;1.58;;;;;;;7.01;66.51;101695.00;5058006;28;20052;-68
2022/12/07 06:51:32;;;;;;;6.00;1.60;;;;;;;7.02;66.79;101698.50;5051515;28;20128;-69
2022/12/07 06:54:00;;;;;;;4.30;1.77;;;;;;;7.00;66.42;101701.34;5058787;28;20048;-70
2022/12/07 06:56:28;;;;;;;5.88;2.13;;;;;;;7.00;66.22;101704.03;5062980;28;20055;-68
2022/12/07 06:58:57;;;;;;;4.78;1.80;;;;;;;6.99;65.94;101690.84;5054899;28;20049;-68
2022/12/07 07:01:25;;;;;;;4.28;2.63;;;;;;;7.17;65.61;101700.22;5052979;28;20160;-69
2022/12/07 07:03:53;;;;;;;5.60;1.92;;;;;;;7.31;65.46;101698.63;5052152;28;20080;-70
2022/12/07 07:06:21;;;;;;;5.88;2.40;;;;;;;7.46;64.85;101694.16;5056568;28;20411;-70
2022/12/07 07:08:48;;;;;;;5.05;2.85;;;;;;;7.66;64.00;101693.63;5058350;28;20649;-68
2022/12/07 07:11:16;;;;;;;3.97;1.42;;;;;;;7.81;63.49;101698.00;5058863;28;20044;-68
2022/12/07 07:13:45;;;;;;;5.00;2.08;;;;;;;7.94;63.71;101693.84;5057281;28;20054;-71
2022/12/07 07:16:15;;;;;;;6.63;2.10;;;;;;;7.80;63.35;101695.50;5048440;28;20057;-69
2022/12/07 07:18:42;;;;;;;6.05;2.40;;;;;;;7.78;63.50;101698.34;5056099;28;20053;-68
2022/12/07 07:21:10;;;;;;;6.50;1.80;;;;;;;7.73;63.82;101690.06;5053124;28;20042;-69
2022/12/07 07:23:38;;;;;;;7.25;2.58;;;;;;;7.66;63.92;101696.31;5062561;28;20045;-69
2022/12/07 07:26:05;;;;;;;4.30;1.98;;;;;;;7.56;63.63;101701.09;5059337;28;20140;-69
2022/12/07 07:28:33;;;;;;;5.35;2.33;;;;;;;7.49;64.24;101704.47;5052530;28;20057;-69
2022/12/07 07:31:01;;;;;;;4.70;2.53;;;;;;;7.38;65.12;101702.25;5043820;28;20053;-68
2022/12/07 07:33:30;;;;;;;5.07;2.60;;;;;;;7.33;65.11;101695.78;5056890;28;20053;-68
2022/12/07 07:35:58;;;;;;;6.93;2.40;;;;;;;7.31;64.90;101692.44;5048220;28;20050;-66
2022/12/07 07:38:25;;;;;;;7.22;2.75;;;;;;;7.23;65.62;101696.00;5055878;28;20067;-67
2022/12/07 07:40:53;;;;;;;9.13;2.47;;;;;;;7.20;65.61;101696.38;5056330;28;20045;-68
2022/12/07 07:43:21;;;;;;;6.40;2.88;;;;;;;7.19;65.24;101703.56;5056920;28;20063;-67
2022/12/07 07:45:49;;;;;;;8.35;2.72;;;;;;;7.13;65.29;101704.28;5055375;28;20048;-68
2022/12/07 07:48:16;;;;;;;9.35;3.33;;;;;;;7.12;65.69;101709.78;5056691;28;20052;-66
2022/12/07 07:50:45;;;;;;;11.70;2.90;;;;;;;7.09;65.64;101719.00;5056236;28;20049;-65
2022/12/07 07:53:13;;;;;;;8.15;2.58;;;;;;;7.07;65.81;101712.16;5062176;28;20516;-65
2022/12/07 07:55:41;;;;;;;7.55;3.53;;;;;;;7.07;65.57;101714.84;5059223;28;20053;-66
2022/12/07 07:58:09;;;;;;;9.40;3.40;;;;;;;7.05;65.76;101714.19;5058736;28;20460;-66
2022/12/07 08:00:36;;;;;;;11.07;3.95;;;;;;;7.03;65.74;101722.38;5054298;28;20117;-66
2022/12/07 08:03:04;;;;;;;6.95;3.35;;;;;;;7.02;65.71;101720.72;5055706;28;20049;-67
2022/12/07 08:05:32;;;;;;;7.00;3.58;;;;;;;7.03;65.89;101721.56;5054411;28;20048;-65
2022/12/07 08:08:01;;;;;;;10.88;4.20;;;;;;;7.02;65.90;101715.38;5063327;28;20478;-65
2022/12/07 08:10:29;;;;;;;8.43;2.90;;;;;;;7.01;65.73;101716.38;5065571;28;20055;-66
2022/12/07 08:13:13;;;;;;;6.55;2.60;;;;;;;7.01;65.62;101715.56;5055401;28;20049;-65
2022/12/07 08:15:42;;;;;;;6.03;2.97;;;;;;;7.00;65.59;101722.72;5054957;28;20310;-66
2022/12/07 08:18:11;;;;;;;8.10;2.90;;;;;;;6.99;65.75;101715.72;5058103;28;20057;-65
2022/12/07 08:20:39;;;;;;;7.75;3.00;;;;;;;6.95;65.63;101717.09;5055738;28;20060;-65
2022/12/07 08:23:12;;;;;;;5.10;2.80;;;;;;;6.98;66.22;101723.91;5055654;28;20044;-67
2022/12/07 08:25:40;;;;;;;9.05;3.33;;;;;;;6.98;66.04;101726.59;5050584;28;20045;-65
2022/12/07 08:28:08;;;;;;;4.95;2.47;;;;;;;6.97;66.04;101736.44;5057605;28;20546;-66
2022/12/07 08:30:36;;;;;;;6.72;3.33;;;;;;;6.95;66.04;101726.94;5043293;28;20109;-68
2022/12/07 08:33:03;;;;;;;10.60;3.35;;;;;;;6.95;65.75;101732.28;5061461;28;20087;-68
2022/12/07 08:35:33;;;;;;;8.95;3.42;;;;;;;6.94;65.72;101734.13;5041974;28;20049;-68
2022/12/07 08:38:02;;;;;;;10.15;3.80;;;;;;;6.95;66.33;101741.13;5056395;28;20128;-68
2022/12/07 08:40:31;;;;;;;11.07;3.28;;;;;;;6.94;66.34;101741.31;5054873;28;20049;-68
2022/12/07 08:42:59;;;;;;;9.20;3.20;;;;;;;6.94;66.18;101744.81;5063596;28;20150;-67
2022/12/07 08:45:27;;;;;;;8.90;4.05;;;;;;;6.94;65.65;101744.81;5056115;28;20047;-68
2022/12/07 08:47:59;;;;;;;5.90;3.17;;;;;;;6.97;66.05;101739.13;5062602;28;20116;-63
2022/12/07 08:50:27;;;;;;;7.82;3.83;;;;;;;7.14;65.35;101742.53;5057959;28;20053;-66
2022/12/07 08:52:57;;;;;;;7.07;3.45;;;;;;;7.27;65.06;101726.72;5052888;28;20046;-67
2022/12/07 08:55:27;;;;;;;5.03;3.10;;;;;;;7.46;64.87;101726.25;5061056;28;20037;-67
2022/12/07 08:57:57;;;;;;;5.07;3.03;;;;;;;7.63;64.07;101726.94;5062353;28;20049;-67
2022/12/07 09:00:26;;;;;;;7.45;2.80;;;;;;;7.84;63.02;101720.88;5060802;28;20117;-66
2022/12/07 09:02:54;;;;;;;5.85;2.35;;;;;;;8.04;62.71;101730.03;5066333;28;20139;-68
2022/12/07 09:05:22;;;;;;;5.82;3.00;;;;;;;8.22;61.79;101727.00;5052383;28;20083;-68
2022/12/07 09:07:53;;;;;;;9.02;3.50;;;;;;;8.40;61.18;101732.84;5053441;28;20463;-67
2022/12/07 09:10:21;;;;;;;8.07;2.85;;;;;;;8.60;60.73;101735.78;5060514;28;20060;-68
2022/12/07 09:12:49;;;;;;;7.68;3.00;;;;;;;8.71;60.11;101737.13;5059205;28;20803;-68
2022/12/07 09:15:18;;;;;;;6.43;2.80;;;;;;;8.81;59.95;101725.09;5049056;28;20113;-67
2022/12/07 09:17:46;;;;;;;7.85;3.05;;;;;;;8.86;59.99;101729.06;5055947;28;20112;-68
2022/12/07 09:20:13;;;;;;;6.75;2.75;;;;;;;8.91;60.02;101724.78;5059883;28;20124;-68
2022/12/07 09:22:41;;;;;;;8.80;2.92;;;;;;;8.92;59.31;101726.44;5054424;28;20057;-68
2022/12/07 09:25:09;;;;;;;7.63;2.65;;;;;;;8.93;59.30;101725.44;5062992;28;20509;-67
2022/12/07 09:27:37;;;;;;;6.07;2.38;;;;;;;9.00;59.83;101728.19;5058297;28;20575;-66
2022/12/07 09:30:06;;;;;;;7.57;2.60;;;;;;;9.02;59.99;101731.50;5064618;28;20049;-67
2022/12/07 09:32:35;;;;;;;5.53;2.60;;;;;;;9.02;59.14;101726.13;5066422;28;20056;-67
2022/12/07 09:35:03;;;;;;;4.60;2.15;;;;;;;9.01;59.49;101732.53;5064163;28;20160;-68
2022/12/07 09:37:34;;;;;;;7.35;2.35;;;;;;;9.02;59.12;101721.59;5068749;28;20049;-68
2022/12/07 09:40:03;;;;;;;8.48;2.28;;;;;;;9.02;59.62;101726.13;5062632;28;20479;-67
2022/12/07 09:42:36;;;;;;;5.47;2.45;;;;;;;9.06;60.02;101724.75;5051581;28;20049;-67
2022/12/07 09:45:07;;;;;;;11.38;2.63;;;;;;;9.10;59.44;101723.34;5059830;28;20494;-66
2022/12/07 09:47:36;;;;;;;8.40;2.65;;;;;;;9.09;59.31;101719.81;5063018;28;20132;-68
2022/12/07 09:50:07;;;;;;;7.07;2.92;;;;;;;9.10;59.70;101726.03;5069928;28;20174;-67
2022/12/07 09:52:36;;;;;;;6.80;2.65;;;;;;;9.13;59.72;101726.47;5058687;28;20117;-67
2022/12/07 09:55:11;;;;;;;8.38;2.47;;;;;;;9.14;59.39;101722.75;5047481;28;20060;-67
2022/12/07 09:57:39;;;;;;;5.78;2.58;;;;;;;9.18;59.39;101722.38;5045873;28;20080;-67
2022/12/07 10:00:15;;;;;;;7.32;2.72;;;;;;;9.17;59.70;101732.28;5051629;28;20131;-68
2022/12/07 10:02:47;;;;;;;5.95;2.40;;;;;;;9.08;59.72;101725.38;5054063;28;20049;-68
2022/12/07 10:05:18;;;;;;;7.05;2.42;;;;;;;8.91;60.27;101723.94;5053793;28;20049;-68
2022/12/07 10:07:51;;;;;;;7.85;2.55;;;;;;;8.76;60.62;101726.66;5058156;28;20045;-67
2022/12/07 10:10:25;;;;;;;6.05;2.47;;;;;;;8.56;61.87;101718.44;5053005;28;20048;-68
2022/12/07 10:12:58;;;;;;;5.15;2.30;;;;;;;8.43;62.14;101715.56;5051549;28;20063;-65
2022/12/07 10:15:43;;;;;;;7.28;2.47;;;;;;;8.29;62.64;101709.19;5056120;28;20117;-67
2022/12/07 10:18:28;;;;;;;7.03;3.40;;;;;;;8.23;62.46;101707.25;5057645;28;20118;-66
2022/12/07 10:21:11;;;;;;;3.38;2.08;;;;;;;8.15;62.72;101707.34;5064137;28;20051;-67
2022/12/07 10:23:40;;;;;;;5.03;2.50;;;;;;;8.08;62.80;101704.56;5063346;28;20045;-67
2022/12/07 10:26:27;;;;;;;6.65;2.33;;;;;;;8.05;63.77;101704.09;5061938;28;20398;-67
2022/12/07 10:28:56;;;;;;;5.10;2.20;;;;;;;8.00;63.64;101695.78;5062975;28;20097;-67
2022/12/07 10:31:24;;;;;;;8.13;2.88;;;;;;;7.98;63.84;101695.16;5065123;28;20112;-67
2022/12/07 10:33:55;;;;;;;5.80;2.53;;;;;;;7.93;64.44;101689.50;5055477;28;20045;-67
2022/12/07 10:36:25;;;;;;;5.68;2.28;;;;;;;7.92;64.58;101682.50;5050091;28;20180;-67
2022/12/07 10:39:00;;;;;;;5.90;3.05;;;;;;;7.88;64.91;101682.03;5064378;28;20059;-66
2022/12/07 10:41:28;;;;;;;5.32;2.20;;;;;;;7.84;64.42;101676.22;5057232;28;20112;-68
2022/12/07 10:43:58;;;;;;;9.65;2.80;;;;;;;7.83;64.72;101681.75;5055840;28;20144;-66
2022/12/07 10:46:52;;;;;;;9.07;2.60;;;;;;;7.80;65.20;101682.13;4706183;28;10000288;-66
2022/12/07 10:49:46;;;;;;;12.25;2.85;;;;;;;7.74;65.45;101677.50;5053142;28;20057;-67
2022/12/07 10:52:27;;;;;;;7.45;3.42;;;;;;;7.77;65.30;101674.47;5055516;28;20055;-70
2022/12/07 10:55:09;;;;;;;7.22;2.53;;;;;;;7.77;65.16;101679.81;5049115;28;20113;-68
2022/12/07 10:57:52;;;;;;;5.22;2.65;;;;;;;7.76;64.82;101668.28;5059955;28;20040;-69
2022/12/07 11:00:23;;;;;;;10.43;2.65;;;;;;;7.75;65.42;101669.28;5051030;28;20165;-67
2022/12/07 11:03:06;;;;;;;10.88;3.53;;;;;;;7.75;65.49;101663.09;5049081;28;20067;-69
2022/12/07 11:05:43;;;;;;;5.50;2.40;;;;;;;7.73;65.84;101667.81;5054135;28;20077;-68
2022/12/07 11:08:20;;;;;;;7.22;2.53;;;;;;;7.72;65.55;101660.81;5058216;28;20048;-68
2022/12/07 11:10:56;;;;;;;4.72;2.55;;;;;;;7.71;65.18;101659.13;5057630;28;20057;-69
2022/12/07 11:13:29;;;;;;;8.40;2.50;;;;;;;7.71;65.65;101654.63;5053957;28;20049;-68
2022/12/07 11:16:15;;;;;;;8.50;4.10;;;;;;;7.73;65.37;101649.09;5050101;28;20068;-70
2022/12/07 11:18:56;;;;;;;6.95;2.50;;;;;;;7.73;65.60;101654.44;5056003;28;20081;-69
2022/12/07 11:21:32;;;;;;;10.55;2.60;;;;;;;7.73;66.15;101649.09;5050232;28;20048;-67
2022/12/07 11:24:06;;;;;;;7.50;2.85;;;;;;;7.74;66.42;101640.88;5062528;28;20112;-67
2022/12/07 11:26:52;;;;;;;8.10;2.85;;;;;;;7.73;65.56;101633.84;5058932;28;20052;-68
2022/12/07 11:29:38;;;;;;;10.93;2.80;;;;;;;7.77;65.93;101640.50;5053512;28;20113;-67
2022/12/07 11:32:15;;;;;;;8.68;2.83;;;;;;;7.76;66.63;101630.00;5055306;28;20132;-68
2022/12/07 11:34:50;;;;;;;6.43;2.28;;;;;;;7.77;66.33;101628.97;5057291;28;20049;-67
2022/12/07 11:37:24;;;;;;;4.95;2.72;;;;;;;7.76;66.30;101633.50;5060890;28;20047;-70
2022/12/07 11:39:56;;;;;;;12.23;2.83;;;;;;;7.77;66.50;101623.63;5057350;28;20049;-70
2022/12/07 11:42:27;;;;;;;6.97;2.35;;;;;;;7.81;65.60;101617.72;5059722;28;20064;-68
2022/12/07 11:45:01;;;;;;;8.55;2.65;;;;;;;7.97;65.65;101613.19;5056000;28;20059;-68
2022/12/07 11:47:35;;;;;;;7.15;2.80;;;;;;;8.10;64.88;101619.53;5056391;28;20048;-69
2022/12/07 11:50:15;;;;;;;6.60;2.53;;;;;;;8.32;65.25;101620.44;4702939;28;10000566;-67
2022/12/07 11:52:52;;;;;;;9.13;2.38;;;;;;;8.48;63.77;101614.06;5063397;28;20054;-69
2022/12/07 11:55:25;;;;;;;6.72;2.38;;;;;;;8.59;63.89;101607.38;5056622;28;20049;-69
2022/12/07 11:58:03;;;;;;;9.05;3.58;;;;;;;8.78;62.81;101606.72;5046953;28;20145;-69